createdAt,value
2019-04-22T00:00:57.286Z,6.50
2019-04-22T00:03:36.042Z,6.40
2019-04-22T00:06:21.100Z,6.40
2019-04-22T00:08:56.853Z,6.40
2019-04-22T00:11:31.887Z,6.40
2019-04-22T00:16:33.810Z,6.30
2019-04-22T00:19:08.925Z,6.20
2019-04-22T00:23:57.924Z,6.10
2019-04-22T00:26:29.378Z,6.10
2019-04-22T00:29:22.391Z,6.10
2019-04-22T00:31:33.293Z,6.00
2019-04-22T00:34:06.647Z,6.00
2019-04-22T00:36:40.190Z,5.90
2019-04-22T00:39:17.098Z,5.90
2019-04-22T00:41:42.541Z,5.80
2019-04-22T00:44:13.798Z,5.70
2019-04-22T00:46:45.931Z,5.70
2019-04-22T00:49:59.626Z,5.60
2019-04-22T00:54:17.060Z,5.60
2019-04-22T00:56:40.986Z,5.60
2019-04-22T00:59:12.982Z,5.50
2019-04-22T01:01:45.659Z,5.50
2019-04-22T01:04:25.611Z,5.50
2019-04-22T01:06:48.874Z,5.40
2019-04-22T01:09:17.330Z,5.40
2019-04-22T01:11:44.939Z,5.30
2019-04-22T01:14:24.996Z,5.30
2019-04-22T01:16:56.470Z,5.30
2019-04-22T01:19:23.661Z,5.30
2019-04-22T01:21:54.548Z,5.30
2019-04-22T01:24:22.201Z,5.20
2019-04-22T01:26:49.274Z,5.20
2019-04-22T01:29:14.718Z,5.10
2019-04-22T01:31:36.542Z,5.00
2019-04-22T01:34:19.812Z,5.00
2019-04-22T01:36:52.861Z,4.90
2019-04-22T01:39:31.840Z,4.90
2019-04-22T01:44:40.558Z,4.90
2019-04-22T01:47:05.970Z,4.80
2019-04-22T01:49:33.521Z,4.90
2019-04-22T01:52:07.764Z,4.90
2019-04-22T01:54:40.319Z,4.80
2019-04-22T01:57:06.556Z,4.80
2019-04-22T01:59:33.016Z,4.80
2019-04-22T02:02:11.851Z,4.80
2019-04-22T02:07:16.525Z,4.80
2019-04-22T02:09:43.449Z,4.80
2019-04-22T02:12:15.364Z,4.80
2019-04-22T02:14:44.416Z,4.80
2019-04-22T02:17:17.540Z,4.80
2019-04-22T02:19:50.200Z,4.70
2019-04-22T02:22:25.712Z,4.70
2019-04-22T02:24:56.365Z,4.70
2019-04-22T02:27:26.192Z,4.70
2019-04-22T02:29:47.383Z,4.70
2019-04-22T02:32:41.116Z,4.70
2019-04-22T02:34:56.860Z,4.70
2019-04-22T02:37:23.373Z,4.70
2019-04-22T02:39:55.068Z,4.70
2019-04-22T02:42:17.881Z,4.60
2019-04-22T02:50:02.072Z,4.40
2019-04-22T02:52:35.457Z,4.40
2019-04-22T02:55:01.449Z,4.40
2019-04-22T03:00:05.668Z,4.30
2019-04-22T03:05:09.100Z,4.30
2019-04-22T03:07:32.282Z,4.30
2019-04-22T03:10:10.026Z,4.30
2019-04-22T03:12:29.410Z,4.20
2019-04-22T03:15:06.296Z,4.30
2019-04-22T03:20:06.344Z,4.20
2019-04-22T03:22:38.922Z,4.20
2019-04-22T03:27:34.778Z,4.20
2019-04-22T03:33:05.020Z,4.20
2019-04-22T03:50:22.696Z,4.10
2019-04-22T03:52:50.267Z,4.00
2019-04-22T03:55:43.543Z,4.00
2019-04-22T03:57:50.330Z,3.90
2019-04-22T04:00:32.540Z,3.90
2019-04-22T04:05:36.016Z,3.90
2019-04-22T04:11:38.432Z,3.80
2019-04-22T04:13:00.053Z,3.80
2019-04-22T04:15:23.677Z,3.80
2019-04-22T04:28:26.685Z,3.70
2019-04-22T04:30:31.611Z,3.70
2019-04-22T04:35:43.767Z,3.80
2019-04-22T04:38:11.465Z,3.80
2019-04-22T04:43:05.421Z,3.80
2019-04-22T04:48:01.061Z,3.90
2019-04-22T04:50:40.278Z,4.00
2019-04-22T05:00:51.482Z,4.10
2019-04-22T05:03:13.792Z,4.20
2019-04-22T05:08:19.797Z,4.30
2019-04-22T05:10:49.874Z,4.40
2019-04-22T05:15:46.197Z,4.60
2019-04-22T05:20:57.318Z,4.90
2019-04-22T05:23:16.230Z,5.00
2019-04-22T05:26:02.915Z,5.30
2019-04-22T05:28:12.189Z,5.80
2019-04-22T05:30:49.276Z,6.90
2019-04-22T05:33:14.257Z,8.20
2019-04-22T05:35:51.139Z,9.60
2019-04-22T05:38:17.691Z,11.10
2019-04-22T05:40:40.843Z,12.40
2019-04-22T05:43:15.900Z,13.60
2019-04-22T05:45:43.300Z,14.20
2019-04-22T05:48:18.953Z,14.90
2019-04-22T05:50:54.287Z,15.90
2019-04-22T05:53:13.203Z,16.80
2019-04-22T05:55:55.556Z,17.70
2019-04-22T05:58:24.361Z,18.90
2019-04-22T06:01:29.013Z,19.90
2019-04-22T06:03:39.469Z,20.80
2019-04-22T06:06:09.218Z,21.30
2019-04-22T06:08:44.469Z,21.60
2019-04-22T06:11:17.168Z,20.90
2019-04-22T06:13:39.035Z,19.90
2019-04-22T06:16:09.253Z,18.70
2019-04-22T06:18:50.323Z,17.70
2019-04-22T06:21:24.455Z,17.00
2019-04-22T06:28:51.899Z,16.10
2019-04-22T06:33:59.123Z,19.00
2019-04-22T06:36:23.383Z,20.90
2019-04-22T06:38:46.746Z,22.80
2019-04-22T06:44:01.082Z,25.90
2019-04-22T06:48:59.848Z,28.10
2019-04-22T06:51:31.055Z,28.90
2019-04-22T06:53:55.931Z,29.10
2019-04-22T06:56:22.375Z,29.90
2019-04-22T06:58:52.404Z,30.40
2019-04-22T07:01:30.953Z,31.00
2019-04-22T07:03:58.009Z,31.90
2019-04-22T07:11:26.589Z,34.00
2019-04-22T07:14:01.592Z,34.60
2019-04-22T07:16:31.507Z,35.30
2019-04-22T07:19:03.410Z,35.90
2019-04-22T07:21:32.140Z,36.50
2019-04-22T07:24:21.485Z,36.40
2019-04-22T07:26:30.465Z,36.60
2019-04-22T07:29:01.514Z,36.70
2019-04-22T07:31:34.410Z,36.90
2019-04-22T07:34:15.771Z,37.50
2019-04-22T07:39:10.345Z,38.20
2019-04-22T07:41:37.729Z,38.30
2019-04-22T07:44:29.584Z,38.10
2019-04-22T07:46:41.948Z,38.40
2019-04-22T07:49:14.755Z,38.30
2019-04-22T07:54:14.734Z,38.40
2019-04-22T07:56:48.579Z,38.70
2019-04-22T07:59:17.117Z,38.40
2019-04-22T08:01:42.797Z,38.80
2019-04-22T08:04:22.980Z,39.20
2019-04-22T08:09:21.429Z,39.70
2019-04-22T08:11:51.557Z,39.40
2019-04-22T08:14:24.602Z,39.60
2019-04-22T08:16:51.590Z,39.60
2019-04-22T08:19:21.165Z,40.10
2019-04-22T08:21:53.285Z,41.00
2019-04-22T08:24:22.221Z,41.30
2019-04-22T08:26:54.291Z,42.60
2019-04-22T08:29:31.247Z,43.10
2019-04-22T08:31:56.582Z,43.10
2019-04-22T08:39:25.311Z,43.80
2019-04-22T08:41:57.223Z,44.20
2019-04-22T08:44:39.130Z,44.20
2019-04-22T08:47:04.248Z,44.20
2019-04-22T08:49:34.529Z,44.20
2019-04-22T08:52:01.451Z,44.70
2019-04-22T08:54:31.107Z,44.90
2019-04-22T08:57:04.754Z,45.30
2019-04-22T08:59:27.961Z,46.50
2019-04-22T09:02:07.694Z,45.90
2019-04-22T09:04:31.169Z,47.00
2019-04-22T09:07:14.122Z,47.80
2019-04-22T09:09:39.390Z,49.00
2019-04-22T09:12:12.651Z,49.60
2019-04-22T09:14:40.500Z,49.80
2019-04-22T09:17:13.697Z,50.10
2019-04-22T09:19:38.547Z,50.20
2019-04-22T09:22:13.707Z,49.70
2019-04-22T09:24:44.155Z,50.20
2019-04-22T09:29:42.859Z,48.80
2019-04-22T09:32:15.331Z,49.40
2019-04-22T09:34:39.826Z,49.80
2019-04-22T09:37:21.078Z,49.70
2019-04-22T09:42:10.819Z,50.10
2019-04-22T09:44:47.326Z,50.00
2019-04-22T09:47:14.680Z,50.40
2019-04-22T09:49:51.846Z,50.00
2019-04-22T09:52:15.132Z,50.10
2019-04-22T09:54:57.910Z,49.60
2019-04-22T09:57:20.398Z,48.80
2019-04-22T09:59:52.544Z,48.50
2019-04-22T10:04:55.165Z,48.40
2019-04-22T10:07:21.016Z,48.40
2019-04-22T10:10:01.500Z,47.90
2019-04-22T10:12:25.259Z,47.90
2019-04-22T10:14:49.444Z,47.30
2019-04-22T10:17:20.356Z,47.50
2019-04-22T10:19:53.741Z,47.60
2019-04-22T10:22:35.601Z,48.00
2019-04-22T10:24:57.006Z,47.90
2019-04-22T10:27:29.229Z,48.30
2019-04-22T10:32:27.982Z,49.00
2019-04-22T10:34:43.599Z,47.50
2019-04-22T10:37:11.171Z,48.30
2019-04-22T10:39:48.307Z,48.70
2019-04-22T10:42:11.688Z,49.10
2019-04-22T10:44:41.456Z,49.60
2019-04-22T10:47:11.808Z,50.00
2019-04-22T10:49:42.440Z,50.20
2019-04-22T10:52:12.850Z,50.30
2019-04-22T10:54:42.982Z,50.40
2019-04-22T10:57:13.834Z,50.60
2019-04-22T10:59:44.746Z,51.60
2019-04-22T11:02:13.798Z,51.80
2019-04-22T11:04:43.941Z,51.40
2019-04-22T11:07:13.613Z,51.30
2019-04-22T11:09:51.684Z,51.00
2019-04-22T11:12:19.269Z,50.80
2019-04-22T11:14:45.555Z,50.40
2019-04-22T11:17:15.648Z,50.80
2019-04-22T11:19:45.825Z,50.90
2019-04-22T11:22:20.490Z,49.70
2019-04-22T11:24:46.589Z,49.30
2019-04-22T11:27:16.886Z,49.40
2019-04-22T11:29:45.897Z,49.10
2019-04-22T11:32:14.974Z,49.10
2019-04-22T11:34:44.920Z,49.60
2019-04-22T11:37:14.656Z,49.10
2019-04-22T11:39:44.895Z,48.50
2019-04-22T11:42:14.091Z,48.50
2019-04-22T11:44:43.280Z,48.50
2019-04-22T11:47:12.341Z,48.00
2019-04-22T11:49:41.781Z,48.00
2019-04-22T11:52:14.649Z,48.50
2019-04-22T11:54:42.966Z,48.60
2019-04-22T11:57:12.886Z,49.50
2019-04-22T11:59:42.820Z,49.60
2019-04-22T12:02:14.404Z,48.80
2019-04-22T12:04:43.676Z,48.80
2019-04-22T12:07:12.897Z,48.50
2019-04-22T12:09:41.986Z,48.20
2019-04-22T12:12:11.924Z,47.50
2019-04-22T12:14:42.429Z,47.80
2019-04-22T12:17:15.886Z,47.50
2019-04-22T12:19:46.369Z,46.90
2019-04-22T12:22:15.446Z,46.40
2019-04-22T12:24:46.096Z,47.00
2019-04-22T12:27:17.415Z,46.80
2019-04-22T12:29:46.966Z,47.00
2019-04-22T12:32:16.027Z,45.60
2019-04-22T12:34:45.039Z,44.40
2019-04-22T12:37:17.431Z,42.90
2019-04-22T12:39:45.365Z,41.30
2019-04-22T12:42:15.377Z,39.90
2019-04-22T12:44:45.844Z,39.20
2019-04-22T12:47:15.061Z,39.30
2019-04-22T12:49:46.993Z,39.70
2019-04-22T12:52:24.112Z,38.80
2019-04-22T12:54:46.825Z,38.00
2019-04-22T12:57:16.793Z,37.10
2019-04-22T12:59:45.902Z,36.30
2019-04-22T13:02:15.491Z,35.50
2019-04-22T13:04:45.979Z,34.40
2019-04-22T13:07:15.737Z,33.70
2019-04-22T13:09:45.418Z,33.50
2019-04-22T13:12:15.207Z,33.40
2019-04-22T13:14:45.543Z,33.10
2019-04-22T13:17:15.684Z,32.70
2019-04-22T13:19:45.261Z,32.30
2019-04-22T13:22:14.625Z,31.90
2019-04-22T13:24:43.961Z,31.30
2019-04-22T13:27:13.007Z,30.90
2019-04-22T13:29:43.373Z,31.00
2019-04-22T13:32:13.194Z,30.90
2019-04-22T13:34:46.524Z,30.20
2019-04-22T13:37:12.920Z,30.20
2019-04-22T13:39:43.193Z,29.90
2019-04-22T13:42:17.600Z,29.50
2019-04-22T13:44:44.143Z,28.80
2019-04-22T13:47:32.495Z,28.50
2019-04-22T13:50:17.180Z,28.30
2019-04-22T13:52:46.346Z,28.00
2019-04-22T13:57:32.563Z,27.30
2019-04-22T13:59:50.719Z,27.20
2019-04-22T14:02:46.471Z,27.30
2019-04-22T14:05:18.931Z,27.20
2019-04-22T14:07:48.721Z,27.20
2019-04-22T14:10:18.837Z,27.30
2019-04-22T14:12:48.794Z,27.20
2019-04-22T14:15:18.143Z,27.10
2019-04-22T14:17:47.220Z,27.00
2019-04-22T14:20:16.732Z,26.80
2019-04-22T14:22:46.309Z,26.60
2019-04-22T14:25:16.610Z,26.40
2019-04-22T14:27:55.839Z,26.40
2019-04-22T14:30:16.858Z,26.30
2019-04-22T14:32:45.845Z,26.20
2019-04-22T14:35:15.732Z,25.80
2019-04-22T14:37:45.859Z,25.80
2019-04-22T14:40:16.556Z,25.80
2019-04-22T14:43:05.907Z,25.60
2019-04-22T14:45:54.997Z,25.60
2019-04-22T14:48:13.722Z,25.60
2019-04-22T14:50:40.257Z,25.40
2019-04-22T14:53:09.807Z,25.30
2019-04-22T14:55:23.884Z,25.40
2019-04-22T14:57:50.968Z,25.30
2019-04-22T15:00:24.103Z,25.20
2019-04-22T15:02:53.338Z,25.00
2019-04-22T15:05:23.828Z,24.90
2019-04-22T15:07:53.128Z,24.80
2019-04-22T15:10:22.841Z,24.90
2019-04-22T15:12:56.332Z,24.80
2019-04-22T15:15:34.406Z,24.80
2019-04-22T15:18:13.854Z,24.70
2019-04-22T15:21:11.069Z,24.40
2019-04-22T15:23:40.476Z,24.40
2019-04-22T15:26:10.545Z,24.30
2019-04-22T15:28:39.736Z,24.10
2019-04-22T15:31:09.134Z,24.10
2019-04-22T15:33:39.524Z,23.90
2019-04-22T15:36:10.025Z,23.80
2019-04-22T15:38:40.530Z,23.80
2019-04-22T15:41:10.444Z,23.80
2019-04-22T15:43:39.588Z,23.80
2019-04-22T15:46:09.677Z,23.60
2019-04-22T15:48:39.925Z,23.60
2019-04-22T15:51:08.923Z,23.50
2019-04-22T15:53:38.092Z,23.50
2019-04-22T15:56:08.514Z,23.30
2019-04-22T15:58:48.853Z,23.30
2019-04-22T16:01:25.614Z,23.20
2019-04-22T16:03:48.310Z,23.20
2019-04-22T16:06:17.740Z,23.10
2019-04-22T16:08:47.902Z,23.10
2019-04-22T16:11:18.124Z,23.10
2019-04-22T16:13:56.751Z,23.10
2019-04-22T16:16:25.706Z,23.10
2019-04-22T16:18:56.164Z,23.10
2019-04-22T16:21:34.064Z,23.00
2019-04-22T16:24:14.080Z,23.00
2019-04-22T16:27:02.593Z,23.00
2019-04-22T16:29:31.640Z,22.90
2019-04-22T16:32:01.196Z,22.80
2019-04-22T16:34:31.299Z,22.70
2019-04-22T16:37:00.823Z,22.60
2019-04-22T16:39:31.091Z,22.50
2019-04-22T16:42:00.647Z,22.50
2019-04-22T16:44:30.359Z,22.40
2019-04-22T16:46:59.582Z,22.30
2019-04-22T16:49:29.788Z,22.20
2019-04-22T16:52:00.230Z,22.10
2019-04-22T16:54:30.735Z,22.00
2019-04-22T16:56:59.974Z,21.90
2019-04-22T16:59:28.880Z,21.90
2019-04-22T17:02:24.490Z,21.80
2019-04-22T17:05:05.428Z,21.70
2019-04-22T17:07:34.297Z,21.60
2019-04-22T17:10:03.968Z,21.50
2019-04-22T17:12:44.335Z,21.40
2019-04-22T17:15:08.227Z,21.20
2019-04-22T17:17:37.031Z,21.00
2019-04-22T17:20:07.230Z,20.90
2019-04-22T17:22:37.627Z,20.80
2019-04-22T17:25:08.698Z,20.60
2019-04-22T17:27:39.175Z,20.60
2019-04-22T17:30:08.848Z,20.40
2019-04-22T17:32:37.827Z,20.30
2019-04-22T17:35:08.344Z,20.20
2019-04-22T17:37:39.135Z,20.00
2019-04-22T17:40:29.026Z,19.90
2019-04-22T17:42:59.168Z,19.80
2019-04-22T17:45:49.244Z,19.70
2019-04-22T17:48:48.593Z,19.50
2019-04-22T17:51:29.986Z,19.50
2019-04-22T17:53:55.082Z,19.30
2019-04-22T17:56:21.627Z,19.20
2019-04-22T17:58:54.343Z,19.10
2019-04-22T18:01:28.071Z,18.90
2019-04-22T18:03:41.358Z,18.90
2019-04-22T18:06:13.784Z,18.80
2019-04-22T18:08:56.379Z,18.60
2019-04-22T18:11:33.604Z,18.50
2019-04-22T18:14:03.123Z,18.30
2019-04-22T18:16:34.466Z,18.30
2019-04-22T18:19:02.137Z,18.20
2019-04-22T18:21:23.271Z,18.10
2019-04-22T18:23:51.965Z,17.90
2019-04-22T18:26:27.824Z,17.90
2019-04-22T18:29:02.754Z,17.70
2019-04-22T18:31:21.552Z,17.60
2019-04-22T18:33:54.520Z,17.40
2019-04-22T18:36:30.727Z,17.30
2019-04-22T18:39:11.166Z,17.30
2019-04-22T18:41:36.867Z,17.20
2019-04-22T18:44:06.178Z,17.20
2019-04-22T18:46:36.552Z,17.10
2019-04-22T18:49:08.076Z,17.00
2019-04-22T18:51:42.543Z,16.90
2019-04-22T18:54:36.774Z,16.70
2019-04-22T18:57:07.979Z,16.60
2019-04-22T18:59:27.820Z,16.50
2019-04-22T19:01:52.360Z,16.50
2019-04-22T19:04:27.409Z,16.40
2019-04-22T19:07:16.684Z,16.30
2019-04-22T19:09:48.460Z,16.30
2019-04-22T19:12:33.961Z,16.20
2019-04-22T19:14:54.931Z,16.00
2019-04-22T19:17:31.290Z,15.90
2019-04-22T19:19:54.349Z,15.70
2019-04-22T19:22:19.525Z,15.60
2019-04-22T19:24:44.403Z,15.50
2019-04-22T19:27:18.821Z,15.60
2019-04-22T19:29:54.096Z,15.60
2019-04-22T19:32:21.364Z,15.50
2019-04-22T19:34:48.208Z,15.40
2019-04-22T19:37:20.788Z,15.30
2019-04-22T19:40:01.806Z,15.20
2019-04-22T19:42:30.421Z,15.20
2019-04-22T19:44:55.332Z,15.20
2019-04-22T19:49:59.492Z,15.00
2019-04-22T19:52:28.890Z,15.00
2019-04-22T19:54:54.973Z,14.90
2019-04-22T19:57:22.606Z,14.90
2019-04-22T19:59:57.412Z,14.80
2019-04-22T20:02:51.498Z,14.70
2019-04-22T20:05:48.080Z,14.60
2019-04-22T20:08:18.872Z,14.60
2019-04-22T20:10:48.890Z,14.70
2019-04-22T20:13:28.844Z,14.60
2019-04-22T20:15:41.141Z,14.50
2019-04-22T20:18:31.678Z,14.50
2019-04-22T20:20:54.359Z,14.40
2019-04-22T20:23:14.521Z,14.30
2019-04-22T20:25:46.365Z,14.20
2019-04-22T20:28:25.664Z,14.20
2019-04-22T20:30:51.141Z,14.10
2019-04-22T20:33:29.349Z,14.00
2019-04-22T20:36:02.265Z,14.10
2019-04-22T20:38:28.067Z,14.00
2019-04-22T20:40:55.173Z,14.00
2019-04-22T20:43:38.585Z,13.90
2019-04-22T20:46:03.083Z,13.80
2019-04-22T20:48:22.236Z,13.70
2019-04-22T20:50:59.229Z,13.70
2019-04-22T20:53:34.451Z,13.60
2019-04-22T20:56:00.074Z,13.50
2019-04-22T20:58:32.961Z,13.40
2019-04-22T21:00:56.965Z,13.40
2019-04-22T21:03:20.893Z,13.40
2019-04-22T21:05:52.576Z,13.40
2019-04-22T21:08:38.904Z,13.30
2019-04-22T21:10:52.088Z,13.20
2019-04-22T21:13:28.145Z,13.10
2019-04-22T21:16:09.176Z,13.10
2019-04-22T21:18:30.679Z,13.10
2019-04-22T21:21:11.400Z,13.00
2019-04-22T21:23:27.613Z,12.90
2019-04-22T21:26:11.211Z,12.80
2019-04-22T21:28:41.815Z,12.70
2019-04-22T21:31:14.844Z,12.70
2019-04-22T21:33:40.846Z,12.50
2019-04-22T21:36:31.294Z,12.50
2019-04-22T21:38:37.603Z,12.40
2019-04-22T21:41:09.895Z,12.30
2019-04-22T21:43:42.489Z,12.20
2019-04-22T21:46:11.934Z,12.10
2019-04-22T21:48:46.293Z,12.10
2019-04-22T21:51:19.824Z,12.20
2019-04-22T21:53:54.628Z,12.20
2019-04-22T21:58:50.667Z,12.10
2019-04-22T22:01:41.473Z,12.00
2019-04-22T22:04:04.830Z,12.00
2019-04-22T22:06:33.298Z,12.00
2019-04-22T22:09:07.195Z,11.90
2019-04-22T22:11:37.105Z,11.90
2019-04-22T22:14:07.685Z,11.80
2019-04-22T22:16:32.018Z,11.80
2019-04-22T22:19:11.141Z,11.70
2019-04-22T22:21:48.413Z,11.80
2019-04-22T22:24:18.038Z,11.90
2019-04-22T22:26:44.850Z,11.90
2019-04-22T22:29:20.491Z,11.80
2019-04-22T22:31:47.077Z,11.80
2019-04-22T22:34:19.101Z,11.70
2019-04-22T22:36:36.240Z,11.70
2019-04-22T22:39:08.633Z,11.60
2019-04-22T22:41:24.006Z,11.60
2019-04-22T22:44:03.226Z,11.50
2019-04-22T22:46:34.176Z,11.50
2019-04-22T22:49:18.753Z,11.40
2019-04-22T22:52:26.288Z,11.40
2019-04-22T22:54:18.451Z,11.30
2019-04-22T22:56:55.538Z,11.20
2019-04-22T22:59:18.561Z,11.10
2019-04-22T23:02:03.226Z,11.10
2019-04-22T23:04:23.757Z,11.10
2019-04-22T23:06:53.341Z,11.10
2019-04-22T23:09:19.799Z,11.10
2019-04-22T23:14:20.906Z,11.20
2019-04-22T23:16:41.904Z,11.10
2019-04-22T23:19:02.745Z,11.10
2019-04-22T23:21:39.692Z,11.00
2019-04-22T23:24:41.401Z,11.00
2019-04-22T23:27:08.198Z,11.00
2019-04-22T23:29:49.643Z,11.00
2019-04-22T23:32:21.135Z,11.00
2019-04-22T23:35:08.269Z,11.00
2019-04-22T23:37:39.624Z,11.00
2019-04-22T23:40:15.795Z,11.00
2019-04-22T23:42:41.487Z,10.90
2019-04-22T23:45:14.028Z,10.80
2019-04-22T23:47:35.157Z,10.80
2019-04-22T23:50:14.032Z,10.70
2019-04-22T23:53:04.848Z,10.70
2019-04-22T23:55:33.430Z,10.60
2019-04-22T23:58:02.671Z,10.60
